Latest Weather Observations for Brisbane Airport

IDQ60901

Issued at 1:01 pm EST Tuesday 21 September 2021 (issued every 10 minutes, with the page automatically refreshed every 10 minutes)

About weather observations | Map of Brisbane area stations | Latest observations for Brisbane area | Other Formats
Station Details ID: 040842 Name: BRISBANE AERO Lat: -27.39 Lon: 153.13 Height: 4.51 m
Data from the previous 72 hours. | See also: Recent months at Brisbane Airport
Date/Time
EST
Temp
°C
App
Temp
°C
Dew
Point
°C
Rel
Hum
%
Delta-T
°C
Wind Press
QNH
hPa
Press
MSL
hPa
Rain since
9am
mm
Dir  Spd
km/h
Gust
km/h
Spd
kts
Gust
kts
21/12:33pm 23.0 12.6 -0.5 21 10.5 WSW 44 63 24 34 1011.8 1011.8 0.0
21/12:30pm 23.3 12.3 1.0 23 10.3 WSW 48 63 26 34 1011.8 1011.8 0.0
21/12:13pm 23.2 13.0 -0.3 21 10.6 WSW 43 69 23 37 1011.7 1011.7 0.0
21/12:00pm 24.0 14.2 2.2 24 10.4 W 43 57 23 31 1011.7 1011.7 0.0
21/11:30am 24.4 13.5 1.3 22 10.8 W 48 63 26 34 1011.9 1011.9 0.0
21/11:00am 24.7 14.9 2.2 23 10.8 WSW 43 63 23 34 1011.9 1011.9 0.0
21/10:49am 24.6 16.2 5.4 29 9.7 WSW 39 61 21 33 1011.9 1011.9 0.0
21/10:30am 23.8 15.4 5.7 31 9.2 WSW 39 54 21 29 1012.1 1012.1 0.0
21/10:00am 23.5 14.8 5.9 32 8.9 WSW 41 59 22 32 1012.2 1012.2 0.0
21/09:53am 24.1 15.5 6.4 32 9.1 WSW 41 59 22 32 1012.1 1012.1 0.0
21/09:30am 24.5 16.8 5.3 29 9.7 WSW 35 48 19 26 1011.9 1011.9 0.0
21/09:00am 23.0 14.9 5.4 32 8.8 WSW 37 48 20 26 1011.6 1011.6 0.0
21/08:46am 23.4 16.4 5.8 32 8.9 WSW 32 50 17 27 1011.6 1011.6 0.0
21/08:30am 23.9 16.7 5.8 31 9.2 W 33 41 18 22 1011.4 1011.4 0.0
21/08:00am 21.6 14.8 7.1 39 7.4 W 32 41 17 22 1011.0 1011.0 0.0
21/07:30am 22.1 15.5 7.9 40 7.4 W 32 39 17 21 1010.9 1010.9 0.0
21/07:00am 22.2 18.2 10.4 47 6.5 W 22 32 12 17 1010.7 1010.7 0.0
21/06:30am 18.6 17.7 12.6 68 3.4 NW 9 11 5 6 1010.5 1010.5 0.0
21/06:00am 18.5 16.6 12.9 70 3.1 NNW 15 19 8 10 1010.1 1010.1 0.0
21/05:30am 18.8 16.8 13.9 73 2.8 NNW 17 19 9 10 1009.7 1009.7 0.0
21/05:00am 19.3 17.6 13.5 69 3.3 NNW 15 19 8 10 1009.4 1009.4 0.0
21/04:30am 19.5 17.5 15.0 75 2.6 N 19 26 10 14 1009.4 1009.4 0.0
21/04:00am 19.3 16.7 14.8 75 2.6 N 22 28 12 15 1009.3 1009.3 0.0
21/03:30am 19.7 17.6 14.7 73 2.9 N 19 26 10 14 1009.6 1009.6 0.0
21/03:00am 19.9 17.6 14.0 69 3.4 N 19 26 10 14 1009.9 1009.9 0.0
21/02:30am 19.8 17.7 15.2 75 2.7 N 20 28 11 15 1010.2 1010.2 0.0
21/02:00am 20.0 17.2 15.4 75 2.7 N 24 32 13 17 1010.5 1010.5 0.0
21/01:30am 20.4 17.9 15.2 72 3.1 N 22 30 12 16 1011.1 1011.1 0.0
21/01:00am 20.8 19.4 15.6 72 3.1 N 17 26 9 14 1012.0 1012.0 0.0
21/12:30am 20.5 18.6 15.3 72 3.1 N 19 26 10 14 1012.3 1012.3 0.0
21/12:00am 20.8 18.4 15.4 71 3.2 NNE 22 28 12 15 1012.8 1012.8 0.0
 
Date/Time
EST
Temp
°C
App
Temp
°C
Dew
Point
°C
Rel
Hum
%
Delta-T
°C
Wind Press
QNH
hPa
Press
MSL
hPa
Rain since
9am
mm
Dir  Spd
km/h
Gust
km/h
Spd
kts
Gust
kts
20/11:30pm 21.2 19.1 15.1 68 3.6 NNE 20 30 11 16 1013.1 1013.1 0.0
20/11:00pm 21.5 19.2 14.6 65 4.0 N 20 28 11 15 1013.4 1013.4 0.0
20/10:30pm 21.7 18.4 14.1 62 4.4 N 24 30 13 16 1013.9 1013.9 0.0
20/10:00pm 21.3 19.0 15.8 71 3.3 NNE 22 30 12 16 1013.7 1013.7 0.0
20/09:30pm 21.2 19.9 16.8 76 2.7 NNE 19 24 10 13 1014.1 1014.1 0.0
20/09:00pm 21.4 19.7 17.2 77 2.6 N 22 30 12 16 1014.6 1014.6 0.0
20/08:30pm 21.2 19.1 18.0 82 2.0 N 26 33 14 18 1014.2 1014.2 0.0
20/08:00pm 21.3 18.2 18.3 83 1.9 N 32 43 17 23 1013.7 1013.7 0.0
20/07:30pm 21.2 17.9 18.4 84 1.7 N 33 44 18 24 1013.5 1013.5 0.0
20/07:00pm 21.1 17.3 18.1 83 1.9 N 35 48 19 26 1013.2 1013.2 0.0
20/06:30pm 21.0 16.4 18.0 83 1.9 NNE 39 50 21 27 1013.2 1013.2 0.0
20/06:00pm 21.1 16.5 18.1 83 1.9 NNE 39 48 21 26 1012.8 1012.8 0.0
20/05:30pm 21.2 16.6 18.0 82 2.0 NNE 39 52 21 28 1012.9 1012.9 0.0
20/05:00pm 21.7 17.1 17.9 79 2.4 NNE 39 50 21 27 1013.0 1013.0 0.0
20/04:30pm 22.0 17.3 17.8 77 2.6 NNE 39 52 21 28 1012.9 1012.9 0.0
20/04:00pm 21.7 16.6 17.7 78 2.5 NNE 41 52 22 28 1013.1 1013.1 0.0
20/03:30pm 22.8 17.8 17.9 74 3.1 NNE 41 52 22 28 1013.3 1013.3 0.0
20/03:00pm 22.9 17.5 17.1 70 3.6 NNE 41 54 22 29 1013.4 1013.4 0.0
20/02:30pm 23.8 20.0 18.0 70 3.6 NNE 35 46 19 25 1014.0 1014.0 0.0
20/02:00pm 23.4 18.9 17.4 69 3.7 NNE 37 48 20 26 1014.6 1014.6 0.0
20/01:30pm 23.4 18.7 17.8 71 3.5 NNE 39 50 21 27 1015.1 1015.1 0.0
20/01:00pm 23.4 18.7 16.9 67 4.0 NNE 37 46 20 25 1015.7 1015.7 0.0
20/12:30pm 23.3 18.7 16.1 64 4.4 NNE 35 46 19 25 1016.5 1016.5 0.0
20/12:00pm 23.5 19.2 17.0 67 4.0 NNE 35 48 19 26 1017.1 1017.1 0.0
20/11:30am 23.6 19.9 16.9 66 4.1 NE 32 37 17 20 1018.2 1018.1 0.0
20/11:00am 24.0 20.6 15.8 60 5.0 NE 28 33 15 18 1019.0 1018.9 0.0
20/10:30am 23.9 21.6 15.7 60 5.0 NE 22 28 12 15 1019.6 1019.5 0.0
20/10:00am 22.8 21.2 15.1 62 4.6 NNE 17 24 9 13 1020.2 1020.1 0.0
20/09:30am 22.3 21.3 15.6 66 4.0 NNE 15 19 8 10 1020.7 1020.6 0.0
20/09:00am 22.0 21.4 15.6 67 3.8 N 13 19 7 10 1021.0 1020.9 0.0
20/08:30am 21.5 20.4 15.3 68 3.7 N 15 20 8 11 1021.2 1021.1 0.0
20/08:00am 20.1 19.5 15.7 76 2.6 NW 13 17 7 9 1021.6 1021.5 0.0
20/07:30am 18.6 18.6 16.2 86 1.4 W 11 17 6 9 1021.4 1021.3 0.0
20/07:00am 17.6 17.4 15.8 89 1.1 W 11 15 6 8 1021.1 1021.0 0.0
20/06:30am 16.1 17.7 15.0 93 0.6 CALM 0 0 0 0 1020.5 1020.4 0.0
20/06:15am 15.0 - 14.0 94 0.6 - - - - - 1020.5 1020.5 -
20/06:00am 14.3 15.4 13.5 95 0.4 CALM 0 0 0 0 1020.6 1020.5 0.0
20/05:44am 14.9 16.1 13.8 93 0.6 CALM 0 0 0 0 1020.6 1020.5 0.0
20/05:30am 14.9 16.0 13.6 92 0.7 CALM 0 0 0 0 1020.5 1020.4 0.0
20/05:00am 15.2 15.3 13.9 92 0.7 WNW 6 7 3 4 1020.4 1020.3 0.0
20/04:30am 15.9 15.4 14.9 94 0.6 WNW 11 15 6 8 1020.2 1020.1 0.0
20/04:00am 15.8 15.6 14.8 94 0.6 N 9 11 5 6 1019.9 1019.8 0.0
20/03:30am 16.7 16.5 15.6 93 0.6 NW 11 13 6 7 1019.9 1019.8 0.0
20/03:00am 16.5 15.8 15.4 93 0.6 N 13 15 7 8 1019.8 1019.7 0.0
20/02:30am 17.0 16.1 15.9 93 0.6 N 15 17 8 9 1020.0 1019.9 0.0
20/02:00am 17.7 17.8 16.4 92 0.8 NNE 11 13 6 7 1020.2 1020.1 0.0
20/01:30am 17.2 17.5 16.1 93 0.7 NNE 9 11 5 6 1020.5 1020.4 0.0
20/01:00am 18.1 20.5 17.1 94 0.6 CALM 0 0 0 0 1020.8 1020.7 0.0
20/12:30am 18.3 20.8 17.3 94 0.6 CALM 0 6 0 3 1021.2 1021.1 0.0
20/12:00am 18.4 19.5 17.1 92 0.8 NE 7 7 4 4 1021.3 1021.2 0.0
 
Date/Time
EST
Temp
°C
App
Temp
°C
Dew
Point
°C
Rel
Hum
%
Delta-T
°C
Wind Press
QNH
hPa
Press
MSL
hPa
Rain since
9am
mm
Dir  Spd
km/h
Gust
km/h
Spd
kts
Gust
kts
19/11:30pm 18.4 19.5 17.1 92 0.8 NE 7 9 4 5 1021.3 1021.2 0.0
19/11:00pm 18.3 19.6 17.0 92 0.8 NE 6 9 3 5 1021.5 1021.4 0.0
19/10:30pm 19.0 20.3 17.5 91 0.9 NE 7 15 4 8 1021.6 1021.5 0.0
19/10:00pm 18.5 19.6 17.2 92 0.8 NE 7 9 4 5 1021.5 1021.4 0.0
19/09:30pm 18.6 19.8 16.9 90 1.0 NE 6 7 3 4 1021.6 1021.5 0.0
19/09:00pm 19.0 20.1 17.0 88 1.2 ENE 7 9 4 5 1021.7 1021.6 0.0
19/08:30pm 19.3 20.3 16.9 86 1.5 NE 7 9 4 5 1021.6 1021.5 0.0
19/08:00pm 18.9 19.8 16.7 87 1.3 NE 7 9 4 5 1021.5 1021.4 0.0
19/07:30pm 18.6 19.0 16.2 86 1.4 NE 9 11 5 6 1021.2 1021.1 0.0
19/07:00pm 18.5 18.4 16.1 86 1.4 NNE 11 13 6 7 1020.8 1020.7 0.0
19/06:30pm 19.3 18.9 14.1 72 3.0 NNE 9 13 5 7 1020.4 1020.3 0.0
19/06:00pm 21.3 20.7 14.7 66 3.9 ENE 11 17 6 9 1020.1 1020.0 0.0
19/05:30pm 21.8 20.3 14.2 62 4.4 ENE 15 19 8 10 1019.9 1019.8 0.0
19/05:00pm 22.7 21.1 14.0 58 5.1 ENE 15 24 8 13 1019.7 1019.6 0.0
19/04:30pm 23.7 21.1 13.3 52 6.0 ENE 19 26 10 14 1019.5 1019.4 0.0
19/04:00pm 24.3 22.3 13.8 52 6.1 ENE 17 24 9 13 1019.5 1019.4 0.0
19/03:30pm 24.8 22.4 12.7 47 7.0 ENE 17 22 9 12 1019.5 1019.4 0.0
19/03:00pm 25.2 22.9 11.7 43 7.7 E 15 22 8 12 1019.6 1019.5 0.0
19/02:30pm 25.5 22.8 11.7 42 7.9 NE 17 22 9 12 1019.8 1019.7 0.0
19/02:00pm 25.7 23.0 11.8 42 7.9 ENE 17 24 9 13 1020.1 1020.0 0.0
19/01:30pm 25.8 23.0 11.2 40 8.3 E 17 24 9 13 1020.6 1020.5 0.0
19/01:00pm 25.6 23.3 11.7 42 7.9 NE 15 26 8 14 1021.0 1020.9 0.0
19/12:30pm 25.4 22.9 12.3 44 7.5 ENE 17 24 9 13 1021.3 1021.2 0.0
19/12:00pm 25.3 23.8 13.2 47 7.0 E 13 26 7 14 1021.6 1021.5 0.0
19/11:30am 25.0 23.0 13.9 50 6.5 NE 17 20 9 11 1022.1 1022.0 0.0
19/11:00am 24.0 22.2 13.2 50 6.2 ENE 15 19 8 10 1022.4 1022.3 0.0
19/10:30am 24.5 23.2 13.7 51 6.3 ENE 13 17 7 9 1022.9 1022.8 0.0
19/10:00am 24.8 23.5 12.4 46 7.1 NNE 11 15 6 8 1022.7 1022.6 0.0
19/09:30am 24.0 23.1 12.6 49 6.5 ENE 9 13 5 7 1023.1 1023.0 0.0
19/09:00am 23.4 22.2 11.5 47 6.7 NNE 9 13 5 7 1023.2 1023.1 0.0
19/08:30am 22.1 20.5 11.5 51 5.9 NNE 11 15 6 8 1023.4 1023.3 0.0
19/08:00am 20.9 19.8 11.8 56 5.1 NNW 9 13 5 7 1023.1 1023.0 0.0
19/07:30am 19.7 19.2 12.5 63 4.0 NNW 7 11 4 6 1022.9 1022.8 0.0
19/07:00am 18.6 19.1 12.8 69 3.2 WNW 2 9 1 5 1022.8 1022.7 0.0
19/06:30am 16.7 17.5 13.6 82 1.7 WSW 2 6 1 3 1022.4 1022.3 0.0
19/06:00am 16.2 15.8 12.9 81 1.8 WSW 7 7 4 4 1022.3 1022.2 0.0
19/05:30am 16.1 15.3 13.0 82 1.7 WNW 9 9 5 5 1022.2 1022.1 0.0
19/05:00am 16.3 15.9 13.0 81 1.8 W 7 9 4 5 1021.7 1021.6 0.0
19/04:30am 16.3 14.7 12.8 80 1.9 NNW 13 15 7 8 1021.6 1021.5 0.0
19/04:00am 17.3 16.3 13.4 78 2.2 N 11 13 6 7 1021.2 1021.1 0.0
19/03:30am 17.0 16.2 12.9 77 2.3 N 9 11 5 6 1021.3 1021.2 0.0
19/03:00am 17.8 17.0 12.9 73 2.7 W 9 11 5 6 1021.5 1021.4 0.0
19/02:30am 18.1 16.7 13.4 74 2.7 NW 13 17 7 9 1021.4 1021.3 0.0
19/02:00am 18.9 17.2 13.5 71 3.1 N 15 19 8 10 1021.2 1021.1 0.0
19/01:30am 19.1 16.3 13.3 69 3.3 N 20 28 11 15 1021.2 1021.1 0.0
19/01:00am 19.3 16.7 13.7 70 3.2 N 20 28 11 15 1021.4 1021.3 0.0
19/12:30am 19.2 16.7 14.0 72 3.0 N 20 26 11 14 1021.8 1021.7 0.0
19/12:00am 19.3 16.0 14.1 72 3.0 N 24 32 13 17 1021.8 1021.7 0.0
 
Date/Time
EST
Temp
°C
App
Temp
°C
Dew
Point
°C
Rel
Hum
%
Delta-T
°C
Wind Press
QNH
hPa
Press
MSL
hPa
Rain since
9am
mm
Dir  Spd
km/h
Gust
km/h
Spd
kts
Gust
kts
18/11:30pm 19.7 15.8 14.5 72 3.0 N 28 37 15 20 1021.8 1021.7 0.0
18/11:00pm 19.9 16.3 15.3 75 2.7 N 28 37 15 20 1021.5 1021.4 0.0
18/10:30pm 20.0 17.7 15.6 76 2.6 N 22 30 12 16 1021.9 1021.8 0.0
18/10:00pm 20.0 18.0 15.6 76 2.6 N 20 28 11 15 1021.7 1021.6 0.0
18/09:30pm 20.0 17.6 15.4 75 2.7 N 22 28 12 15 1021.8 1021.7 0.0
18/09:00pm 19.9 17.8 15.1 74 2.8 N 20 28 11 15 1022.1 1022.0 0.0
18/08:30pm 20.1 18.1 14.9 72 3.0 N 19 28 10 15 1022.1 1022.0 0.0
18/08:00pm 20.1 17.8 14.7 71 3.1 N 20 28 11 15 1022.0 1021.9 0.0
18/07:30pm 19.6 16.5 14.4 72 3.0 N 24 30 13 16 1021.9 1021.8 0.0
18/07:00pm 19.7 17.0 14.7 73 2.9 N 22 30 12 16 1021.7 1021.6 0.0
18/06:30pm 19.9 17.2 14.5 71 3.1 N 22 30 12 16 1021.4 1021.3 0.0
18/06:00pm 20.2 17.2 14.8 71 3.2 NNE 24 32 13 17 1021.2 1021.1 0.0
18/05:30pm 20.1 17.1 14.7 71 3.2 NNE 24 32 13 17 1020.9 1020.8 0.0
18/05:00pm 20.4 16.6 14.7 70 3.3 NNE 28 37 15 20 1020.6 1020.5 0.0
18/04:30pm 21.4 16.8 14.6 65 4.0 NNE 32 39 17 21 1020.3 1020.2 0.0
18/04:00pm 21.6 16.8 14.0 62 4.4 NNE 32 41 17 22 1020.1 1020.0 0.0
18/03:30pm 22.2 17.2 14.1 60 4.7 NNE 33 39 18 21 1020.1 1020.0 0.0
18/03:00pm 22.5 17.4 13.6 57 5.1 NNE 33 43 18 23 1020.3 1020.2 0.0
18/02:30pm 21.8 17.0 13.9 61 4.6 NNE 32 39 17 21 1020.3 1020.2 0.0
18/02:00pm 22.4 17.6 14.0 59 4.9 NNE 32 39 17 21 1020.5 1020.4 0.0
18/01:30pm 22.4 17.3 13.2 56 5.3 NNE 32 39 17 21 1021.0 1020.9 0.0

Latest Capital City Observations: Canberra | Sydney | Melbourne | Brisbane | Adelaide | Perth | Hobart | Darwin

Other formats

Comma delimited format used in spreadsheet applications
http://www.bom.gov.au/fwo/IDQ60901/IDQ60901.94578.axf

JavaScript Object Notation format (JSON) in row-major order
http://www.bom.gov.au/fwo/IDQ60901/IDQ60901.94578.json

Data quality

Most of these data are generated automatically and are frequently updated. Quality checks on data are not normally performed. It is possible for incorrect values to appear. Refer to information at About Latest Weather Observations and please check the disclaimer before using these data.